sensor_id;sensor_type;location;lat;lon;timestamp;pressure;altitude;pressure_sealevel;temperature;humidity
3968;BME280;9221;42.646;23.380;2023-12-20T00:01:19;94870.91;;;1.95;96.38
3968;BME280;9221;42.646;23.380;2023-12-20T00:03:45;94887.19;;;1.98;96.15
3968;BME280;9221;42.646;23.380;2023-12-20T00:06:10;94897.97;;;2.07;96.44
3968;BME280;9221;42.646;23.380;2023-12-20T00:08:37;94884.28;;;2.03;96.59
3968;BME280;9221;42.646;23.380;2023-12-20T00:11:02;94891.00;;;2.07;96.04
3968;BME280;9221;42.646;23.380;2023-12-20T00:13:28;94887.75;;;2.18;96.17
3968;BME280;9221;42.646;23.380;2023-12-20T00:15:53;94888.09;;;2.12;95.71
3968;BME280;9221;42.646;23.380;2023-12-20T00:18:19;94879.34;;;1.84;96.21
3968;BME280;9221;42.646;23.380;2023-12-20T00:20:44;94884.53;;;1.84;96.37
3968;BME280;9221;42.646;23.380;2023-12-20T00:23:10;94873.03;;;1.74;96.60
3968;BME280;9221;42.646;23.380;2023-12-20T00:25:35;94881.94;;;1.69;97.23
3968;BME280;9221;42.646;23.380;2023-12-20T00:28:01;94876.59;;;1.57;97.23
3968;BME280;9221;42.646;23.380;2023-12-20T00:30:27;94868.06;;;1.55;97.49
3968;BME280;9221;42.646;23.380;2023-12-20T00:32:53;94871.88;;;1.63;97.34
3968;BME280;9221;42.646;23.380;2023-12-20T00:35:19;94867.16;;;1.70;97.24
3968;BME280;9221;42.646;23.380;2023-12-20T00:37:44;94829.59;;;1.45;96.89
3968;BME280;9221;42.646;23.380;2023-12-20T00:40:10;94852.72;;;1.50;96.83
3968;BME280;9221;42.646;23.380;2023-12-20T00:42:36;94847.69;;;1.47;96.82
3968;BME280;9221;42.646;23.380;2023-12-20T00:45:01;94846.94;;;1.45;96.85
3968;BME280;9221;42.646;23.380;2023-12-20T00:47:28;94846.78;;;1.48;96.61
3968;BME280;9221;42.646;23.380;2023-12-20T00:49:53;94843.41;;;1.46;97.00
3968;BME280;9221;42.646;23.380;2023-12-20T00:52:19;94838.03;;;1.49;96.39
3968;BME280;9221;42.646;23.380;2023-12-20T00:54:45;94831.91;;;1.35;96.60
3968;BME280;9221;42.646;23.380;2023-12-20T00:57:10;94835.22;;;1.38;96.87
3968;BME280;9221;42.646;23.380;2023-12-20T00:59:36;94833.75;;;1.33;97.25
3968;BME280;9221;42.646;23.380;2023-12-20T01:02:02;94832.25;;;1.29;97.67
3968;BME280;9221;42.646;23.380;2023-12-20T01:04:27;94831.44;;;1.13;97.73
3968;BME280;9221;42.646;23.380;2023-12-20T01:06:53;94826.25;;;1.13;98.27
3968;BME280;9221;42.646;23.380;2023-12-20T01:09:19;94820.72;;;1.19;98.47
3968;BME280;9221;42.646;23.380;2023-12-20T01:11:44;94793.41;;;1.12;98.29
3968;BME280;9221;42.646;23.380;2023-12-20T01:14:11;94812.66;;;1.24;98.00
3968;BME280;9221;42.646;23.380;2023-12-20T01:16:37;94813.66;;;1.21;97.77
3968;BME280;9221;42.646;23.380;2023-12-20T01:19:03;94811.81;;;1.23;98.02
3968;BME280;9221;42.646;23.380;2023-12-20T01:21:28;94809.97;;;1.25;98.03
3968;BME280;9221;42.646;23.380;2023-12-20T01:23:54;94806.06;;;1.18;97.94
3968;BME280;9221;42.646;23.380;2023-12-20T01:26:19;94803.47;;;1.18;98.36
3968;BME280;9221;42.646;23.380;2023-12-20T01:28:44;94804.19;;;1.20;98.68
3968;BME280;9221;42.646;23.380;2023-12-20T01:31:10;94796.41;;;1.20;98.56
3968;BME280;9221;42.646;23.380;2023-12-20T01:33:35;94796.97;;;1.25;98.35
3968;BME280;9221;42.646;23.380;2023-12-20T01:36:01;94797.91;;;1.24;98.08
3968;BME280;9221;42.646;23.380;2023-12-20T01:38:26;94791.19;;;1.20;97.92
3968;BME280;9221;42.646;23.380;2023-12-20T01:40:52;94784.00;;;1.25;97.79
3968;BME280;9221;42.646;23.380;2023-12-20T01:43:17;94758.16;;;1.08;98.35
3968;BME280;9221;42.646;23.380;2023-12-20T01:45:43;94782.97;;;1.28;98.25
3968;BME280;9221;42.646;23.380;2023-12-20T01:48:09;94752.22;;;1.06;98.02
3968;BME280;9221;42.646;23.380;2023-12-20T01:50:36;94779.16;;;1.19;98.41
3968;BME280;9221;42.646;23.380;2023-12-20T01:53:03;94759.88;;;1.23;98.23
3968;BME280;9221;42.646;23.380;2023-12-20T01:55:31;94717.91;;;1.00;97.94
3968;BME280;9221;42.646;23.380;2023-12-20T01:57:59;94755.56;;;1.08;98.65
3968;BME280;9221;42.646;23.380;2023-12-20T02:00:26;94688.69;;;0.66;98.66
3968;BME280;9221;42.646;23.380;2023-12-20T02:02:54;94755.41;;;1.11;98.91
3968;BME280;9221;42.646;23.380;2023-12-20T02:05:22;94752.03;;;1.09;99.08
3968;BME280;9221;42.646;23.380;2023-12-20T02:07:49;94752.72;;;1.12;98.81
3968;BME280;9221;42.646;23.380;2023-12-20T02:10:15;94739.16;;;1.07;98.76
3968;BME280;9221;42.646;23.380;2023-12-20T02:12:41;94741.31;;;1.15;99.07
3968;BME280;9221;42.646;23.380;2023-12-20T02:15:07;94737.38;;;1.08;98.69
3968;BME280;9221;42.646;23.380;2023-12-20T02:17:32;94711.53;;;0.90;99.08
3968;BME280;9221;42.646;23.380;2023-12-20T02:19:59;94749.31;;;1.26;98.79
3968;BME280;9221;42.646;23.380;2023-12-20T02:22:24;94735.22;;;1.30;98.39
3968;BME280;9221;42.646;23.380;2023-12-20T02:24:50;94732.69;;;1.29;98.10
3968;BME280;9221;42.646;23.380;2023-12-20T02:27:17;94718.94;;;1.27;98.23
3968;BME280;9221;42.646;23.380;2023-12-20T02:29:43;94696.97;;;1.18;97.82
3968;BME280;9221;42.646;23.380;2023-12-20T02:32:09;94724.34;;;1.24;97.37
3968;BME280;9221;42.646;23.380;2023-12-20T02:34:34;94721.06;;;1.20;97.61
3968;BME280;9221;42.646;23.380;2023-12-20T02:37:00;94669.81;;;0.79;97.58
3968;BME280;9221;42.646;23.380;2023-12-20T02:39:25;94714.53;;;0.98;98.61
3968;BME280;9221;42.646;23.380;2023-12-20T02:41:50;94713.03;;;0.94;98.50
3968;BME280;9221;42.646;23.380;2023-12-20T02:44:16;94704.53;;;0.92;98.46
3968;BME280;9221;42.646;23.380;2023-12-20T02:46:41;94697.75;;;0.90;97.95
3968;BME280;9221;42.646;23.380;2023-12-20T02:49:07;94667.34;;;0.61;98.60
3968;BME280;9221;42.646;23.380;2023-12-20T02:51:32;94718.78;;;0.85;98.67
3968;BME280;9221;42.646;23.380;2023-12-20T02:53:58;94697.97;;;0.71;98.59
3968;BME280;9221;42.646;23.380;2023-12-20T02:56:23;94705.91;;;0.83;98.71
3968;BME280;9221;42.646;23.380;2023-12-20T02:58:49;94700.44;;;0.88;98.61
3968;BME280;9221;42.646;23.380;2023-12-20T03:01:14;94709.19;;;1.01;97.88
3968;BME280;9221;42.646;23.380;2023-12-20T03:03:40;94700.28;;;1.06;97.50
3968;BME280;9221;42.646;23.380;2023-12-20T03:06:05;94699.91;;;1.12;97.21
3968;BME280;9221;42.646;23.380;2023-12-20T03:08:31;94720.78;;;1.10;96.17
3968;BME280;9221;42.646;23.380;2023-12-20T03:10:56;94703.34;;;0.67;96.17
3968;BME280;9221;42.646;23.380;2023-12-20T03:13:23;94706.06;;;0.34;96.23
3968;BME280;9221;42.646;23.380;2023-12-20T03:15:49;94704.31;;;0.35;97.53
3968;BME280;9221;42.646;23.380;2023-12-20T03:18:14;94705.66;;;0.42;97.58
3968;BME280;9221;42.646;23.380;2023-12-20T03:20:40;94700.13;;;0.48;97.77
3968;BME280;9221;42.646;23.380;2023-12-20T03:23:06;94708.47;;;0.53;97.45
3968;BME280;9221;42.646;23.380;2023-12-20T03:25:32;94703.44;;;0.66;97.58
3968;BME280;9221;42.646;23.380;2023-12-20T03:27:57;94701.78;;;0.49;97.16
3968;BME280;9221;42.646;23.380;2023-12-20T03:30:23;94692.59;;;0.27;97.42
3968;BME280;9221;42.646;23.380;2023-12-20T03:32:48;94685.41;;;0.32;97.40
3968;BME280;9221;42.646;23.380;2023-12-20T03:35:14;94684.59;;;0.32;97.48
3968;BME280;9221;42.646;23.380;2023-12-20T03:37:39;94700.63;;;0.39;97.25
3968;BME280;9221;42.646;23.380;2023-12-20T03:40:05;94682.06;;;0.30;97.23
3968;BME280;9221;42.646;23.380;2023-12-20T03:42:31;94684.41;;;0.19;96.77
3968;BME280;9221;42.646;23.380;2023-12-20T03:44:56;94692.31;;;0.02;96.78
3968;BME280;9221;42.646;23.380;2023-12-20T03:47:22;94686.28;;;-0.15;97.11
3968;BME280;9221;42.646;23.380;2023-12-20T03:49:47;94674.66;;;-0.24;98.25
3968;BME280;9221;42.646;23.380;2023-12-20T03:52:13;94681.03;;;-0.13;98.42
3968;BME280;9221;42.646;23.380;2023-12-20T03:54:39;94685.28;;;0.04;97.77
3968;BME280;9221;42.646;23.380;2023-12-20T03:57:05;94677.66;;;0.01;97.91
3968;BME280;9221;42.646;23.380;2023-12-20T03:59:34;94670.88;;;0.14;98.67
3968;BME280;9221;42.646;23.380;2023-12-20T04:02:00;94672.63;;;0.29;98.54
3968;BME280;9221;42.646;23.380;2023-12-20T04:04:25;94667.84;;;0.22;98.05
3968;BME280;9221;42.646;23.380;2023-12-20T04:06:51;94687.94;;;0.18;98.89
3968;BME280;9221;42.646;23.380;2023-12-20T04:09:16;94669.88;;;0.16;98.95
3968;BME280;9221;42.646;23.380;2023-12-20T04:11:42;94662.53;;;0.09;99.17
3968;BME280;9221;42.646;23.380;2023-12-20T04:14:07;94658.84;;;0.13;99.35
3968;BME280;9221;42.646;23.380;2023-12-20T04:16:33;94657.06;;;0.29;99.61
3968;BME280;9221;42.646;23.380;2023-12-20T04:18:58;94650.78;;;0.33;98.89
3968;BME280;9221;42.646;23.380;2023-12-20T04:21:24;94657.16;;;0.28;98.31
3968;BME280;9221;42.646;23.380;2023-12-20T04:23:49;94656.16;;;0.30;98.55
3968;BME280;9221;42.646;23.380;2023-12-20T04:26:15;94655.97;;;0.33;98.26
3968;BME280;9221;42.646;23.380;2023-12-20T04:28:41;94655.44;;;0.43;97.29
3968;BME280;9221;42.646;23.380;2023-12-20T04:31:06;94646.75;;;0.44;97.39
3968;BME280;9221;42.646;23.380;2023-12-20T04:33:32;94648.78;;;0.53;97.35
3968;BME280;9221;42.646;23.380;2023-12-20T04:35:57;94639.50;;;0.49;96.20
3968;BME280;9221;42.646;23.380;2023-12-20T04:38:23;94634.78;;;0.41;97.25
3968;BME280;9221;42.646;23.380;2023-12-20T04:40:48;94626.34;;;0.38;96.98
3968;BME280;9221;42.646;23.380;2023-12-20T04:43:14;94624.84;;;0.33;97.53
3968;BME280;9221;42.646;23.380;2023-12-20T04:45:39;94631.69;;;0.35;97.96
3968;BME280;9221;42.646;23.380;2023-12-20T04:48:05;94635.41;;;0.30;97.56
3968;BME280;9221;42.646;23.380;2023-12-20T04:50:30;94627.25;;;0.37;97.71
3968;BME280;9221;42.646;23.380;2023-12-20T04:52:56;94628.00;;;0.39;97.69
3968;BME280;9221;42.646;23.380;2023-12-20T04:55:22;94620.56;;;0.32;97.42
3968;BME280;9221;42.646;23.380;2023-12-20T04:57:47;94619.78;;;0.16;97.29
3968;BME280;9221;42.646;23.380;2023-12-20T05:00:13;94620.69;;;0.15;97.48
3968;BME280;9221;42.646;23.380;2023-12-20T05:02:41;94628.84;;;0.23;97.10
3968;BME280;9221;42.646;23.380;2023-12-20T05:05:07;94618.84;;;0.17;96.87
3968;BME280;9221;42.646;23.380;2023-12-20T05:07:32;94611.41;;;0.11;96.34
3968;BME280;9221;42.646;23.380;2023-12-20T05:09:58;94620.88;;;0.12;95.75
3968;BME280;9221;42.646;23.380;2023-12-20T05:12:24;94614.66;;;0.14;96.28
3968;BME280;9221;42.646;23.380;2023-12-20T05:14:51;94604.31;;;-0.02;95.83
3968;BME280;9221;42.646;23.380;2023-12-20T05:17:17;94535.28;;;-0.65;95.45
3968;BME280;9221;42.646;23.380;2023-12-20T05:19:43;94617.72;;;-0.25;96.63
3968;BME280;9221;42.646;23.380;2023-12-20T05:22:08;94606.88;;;-0.32;97.10
3968;BME280;9221;42.646;23.380;2023-12-20T05:24:34;94618.72;;;-0.44;96.77
3968;BME280;9221;42.646;23.380;2023-12-20T05:26:59;94607.19;;;-0.54;97.22
3968;BME280;9221;42.646;23.380;2023-12-20T05:29:25;94601.66;;;-0.80;99.79
3968;BME280;9221;42.646;23.380;2023-12-20T05:31:51;94596.66;;;-0.83;100.00
3968;BME280;9221;42.646;23.380;2023-12-20T05:34:17;94606.34;;;-0.71;100.00
3968;BME280;9221;42.646;23.380;2023-12-20T05:36:43;94597.00;;;-0.57;100.00
3968;BME280;9221;42.646;23.380;2023-12-20T05:39:08;94603.69;;;-0.53;100.00
3968;BME280;9221;42.646;23.380;2023-12-20T05:41:34;94600.34;;;-0.55;100.00
3968;BME280;9221;42.646;23.380;2023-12-20T05:43:59;94594.84;;;-0.49;100.00
3968;BME280;9221;42.646;23.380;2023-12-20T05:46:25;94591.84;;;-0.57;100.00
3968;BME280;9221;42.646;23.380;2023-12-20T05:48:51;94584.22;;;-0.60;100.00
3968;BME280;9221;42.646;23.380;2023-12-20T05:51:17;94589.97;;;-0.55;100.00
3968;BME280;9221;42.646;23.380;2023-12-20T05:53:44;94584.47;;;-0.49;100.00
3968;BME280;9221;42.646;23.380;2023-12-20T05:56:10;94583.28;;;-0.59;100.00
3968;BME280;9221;42.646;23.380;2023-12-20T05:58:36;94592.06;;;-0.62;100.00
3968;BME280;9221;42.646;23.380;2023-12-20T06:01:05;94588.06;;;-0.68;100.00
3968;BME280;9221;42.646;23.380;2023-12-20T06:03:31;94580.78;;;-0.77;100.00
3968;BME280;9221;42.646;23.380;2023-12-20T06:05:56;94576.59;;;-0.95;100.00
3968;BME280;9221;42.646;23.380;2023-12-20T06:08:22;94570.25;;;-0.90;100.00
3968;BME280;9221;42.646;23.380;2023-12-20T06:10:48;94574.38;;;-0.70;100.00
3968;BME280;9221;42.646;23.380;2023-12-20T06:13:14;94575.94;;;-0.67;100.00
3968;BME280;9221;42.646;23.380;2023-12-20T06:15:39;94577.94;;;-0.56;100.00
3968;BME280;9221;42.646;23.380;2023-12-20T06:18:08;94602.03;;;-0.54;100.00
3968;BME280;9221;42.646;23.380;2023-12-20T06:20:33;94584.47;;;-0.49;100.00
3968;BME280;9221;42.646;23.380;2023-12-20T06:22:59;94588.00;;;-0.50;100.00
3968;BME280;9221;42.646;23.380;2023-12-20T06:25:25;94589.38;;;-0.60;100.00
3968;BME280;9221;42.646;23.380;2023-12-20T06:27:50;94582.13;;;-0.54;100.00
3968;BME280;9221;42.646;23.380;2023-12-20T06:30:16;94587.06;;;-0.49;100.00
3968;BME280;9221;42.646;23.380;2023-12-20T06:32:42;94587.00;;;-0.47;100.00
3968;BME280;9221;42.646;23.380;2023-12-20T06:35:08;94537.19;;;-0.84;100.00
3968;BME280;9221;42.646;23.380;2023-12-20T06:37:34;94577.94;;;-0.56;100.00
3968;BME280;9221;42.646;23.380;2023-12-20T06:40:00;94578.63;;;-0.37;100.00
3968;BME280;9221;42.646;23.380;2023-12-20T06:42:26;94582.94;;;-0.21;100.00
3968;BME280;9221;42.646;23.380;2023-12-20T06:44:52;94575.41;;;-0.10;100.00
3968;BME280;9221;42.646;23.380;2023-12-20T06:47:17;94568.41;;;-0.40;100.00
3968;BME280;9221;42.646;23.380;2023-12-20T06:49:43;94568.91;;;-0.33;100.00
3968;BME280;9221;42.646;23.380;2023-12-20T06:52:08;94565.97;;;-0.11;100.00
3968;BME280;9221;42.646;23.380;2023-12-20T06:54:34;94562.84;;;-0.02;100.00
3968;BME280;9221;42.646;23.380;2023-12-20T06:57:00;94550.84;;;-0.03;100.00
3968;BME280;9221;42.646;23.380;2023-12-20T06:59:25;94562.59;;;0.33;100.00
3968;BME280;9221;42.646;23.380;2023-12-20T07:01:51;94566.28;;;0.29;100.00
3968;BME280;9221;42.646;23.380;2023-12-20T07:04:17;94564.88;;;0.83;100.00
3968;BME280;9221;42.646;23.380;2023-12-20T07:06:45;94562.75;;;1.33;100.00
3968;BME280;9221;42.646;23.380;2023-12-20T07:09:11;94545.97;;;1.93;100.00
3968;BME280;9221;42.646;23.380;2023-12-20T07:11:38;94543.81;;;2.53;97.47
3968;BME280;9221;42.646;23.380;2023-12-20T07:14:04;94541.09;;;2.93;93.66
3968;BME280;9221;42.646;23.380;2023-12-20T07:16:29;94550.88;;;3.65;90.87
3968;BME280;9221;42.646;23.380;2023-12-20T07:18:55;94546.03;;;3.96;85.77
3968;BME280;9221;42.646;23.380;2023-12-20T07:21:21;94540.88;;;4.07;84.82
3968;BME280;9221;42.646;23.380;2023-12-20T07:23:47;94545.84;;;3.99;82.46
3968;BME280;9221;42.646;23.380;2023-12-20T07:26:12;94541.38;;;4.13;83.04
3968;BME280;9221;42.646;23.380;2023-12-20T07:28:38;94514.84;;;4.30;82.83
3968;BME280;9221;42.646;23.380;2023-12-20T07:31:03;94533.91;;;4.44;80.27
3968;BME280;9221;42.646;23.380;2023-12-20T07:33:29;94543.13;;;4.01;80.12
3968;BME280;9221;42.646;23.380;2023-12-20T07:35:55;94531.59;;;3.55;81.68
3968;BME280;9221;42.646;23.380;2023-12-20T07:38:20;94531.75;;;3.28;82.94
3968;BME280;9221;42.646;23.380;2023-12-20T07:40:46;94529.41;;;2.99;84.39
3968;BME280;9221;42.646;23.380;2023-12-20T07:43:11;94529.66;;;2.57;84.65
3968;BME280;9221;42.646;23.380;2023-12-20T07:45:37;94547.81;;;2.31;85.87
3968;BME280;9221;42.646;23.380;2023-12-20T07:48:03;94534.66;;;1.80;87.79
3968;BME280;9221;42.646;23.380;2023-12-20T07:50:30;94536.13;;;1.57;89.89
3968;BME280;9221;42.646;23.380;2023-12-20T07:52:55;94519.81;;;1.55;91.42
3968;BME280;9221;42.646;23.380;2023-12-20T07:55:21;94523.78;;;1.60;92.62
3968;BME280;9221;42.646;23.380;2023-12-20T07:57:46;94536.97;;;1.57;92.38
3968;BME280;9221;42.646;23.380;2023-12-20T08:00:12;94524.69;;;1.32;92.35
3968;BME280;9221;42.646;23.380;2023-12-20T08:02:38;94535.94;;;1.04;94.59
3968;BME280;9221;42.646;23.380;2023-12-20T08:05:03;94518.91;;;0.71;96.62
3968;BME280;9221;42.646;23.380;2023-12-20T08:07:29;94536.50;;;0.65;98.11
3968;BME280;9221;42.646;23.380;2023-12-20T08:09:54;94520.78;;;0.69;99.08
3968;BME280;9221;42.646;23.380;2023-12-20T08:12:22;94517.97;;;1.00;99.63
3968;BME280;9221;42.646;23.380;2023-12-20T08:14:47;94517.75;;;1.18;99.14
3968;BME280;9221;42.646;23.380;2023-12-20T08:17:13;94522.00;;;1.33;98.46
3968;BME280;9221;42.646;23.380;2023-12-20T08:19:41;94509.16;;;1.45;98.36
3968;BME280;9221;42.646;23.380;2023-12-20T08:22:07;94516.69;;;1.49;97.68
3968;BME280;9221;42.646;23.380;2023-12-20T08:24:32;94508.97;;;1.48;96.84
3968;BME280;9221;42.646;23.380;2023-12-20T08:26:58;94509.09;;;1.74;96.56
3968;BME280;9221;42.646;23.380;2023-12-20T08:29:23;94513.50;;;1.86;96.25
3968;BME280;9221;42.646;23.380;2023-12-20T08:31:55;94503.88;;;1.74;95.10
3968;BME280;9221;42.646;23.380;2023-12-20T08:34:21;94498.38;;;1.51;94.75
3968;BME280;9221;42.646;23.380;2023-12-20T08:36:46;94478.59;;;1.35;94.90
3968;BME280;9221;42.646;23.380;2023-12-20T08:39:12;94489.09;;;1.20;95.44
3968;BME280;9221;42.646;23.380;2023-12-20T08:41:37;94470.63;;;1.24;95.80
3968;BME280;9221;42.646;23.380;2023-12-20T08:44:03;94467.50;;;1.46;96.23
3968;BME280;9221;42.646;23.380;2023-12-20T08:46:29;94469.38;;;1.84;95.96
3968;BME280;9221;42.646;23.380;2023-12-20T08:48:54;94470.38;;;2.09;95.34
3968;BME280;9221;42.646;23.380;2023-12-20T08:51:20;94472.72;;;1.99;94.01
3968;BME280;9221;42.646;23.380;2023-12-20T08:53:48;94475.00;;;1.91;93.73
3968;BME280;9221;42.646;23.380;2023-12-20T08:56:14;94479.22;;;2.07;93.69
3968;BME280;9221;42.646;23.380;2023-12-20T08:58:40;94472.88;;;2.11;93.21
3968;BME280;9221;42.646;23.380;2023-12-20T09:01:05;94461.34;;;2.15;93.00
3968;BME280;9221;42.646;23.380;2023-12-20T09:03:31;94463.09;;;2.27;93.52
3968;BME280;9221;42.646;23.380;2023-12-20T09:05:56;94449.47;;;2.36;92.63
3968;BME280;9221;42.646;23.380;2023-12-20T09:08:22;94437.81;;;2.29;92.87
3968;BME280;9221;42.646;23.380;2023-12-20T09:10:47;94431.16;;;2.25;92.60
3968;BME280;9221;42.646;23.380;2023-12-20T09:13:12;94417.09;;;2.15;93.19
3968;BME280;9221;42.646;23.380;2023-12-20T09:15:38;94407.00;;;2.10;93.37
3968;BME280;9221;42.646;23.380;2023-12-20T09:18:04;94405.56;;;2.19;93.97
3968;BME280;9221;42.646;23.380;2023-12-20T09:20:29;94403.88;;;2.18;93.93
3968;BME280;9221;42.646;23.380;2023-12-20T09:22:55;94356.75;;;1.84;94.29
3968;BME280;9221;42.646;23.380;2023-12-20T09:25:21;94404.78;;;1.91;94.70
3968;BME280;9221;42.646;23.380;2023-12-20T09:27:48;94393.25;;;1.69;95.37
3968;BME280;9221;42.646;23.380;2023-12-20T09:30:13;94379.81;;;1.63;96.20
3968;BME280;9221;42.646;23.380;2023-12-20T09:32:39;94381.41;;;1.65;95.60
3968;BME280;9221;42.646;23.380;2023-12-20T09:35:05;94385.72;;;1.52;96.28
3968;BME280;9221;42.646;23.380;2023-12-20T09:37:31;94387.91;;;1.58;97.30
3968;BME280;9221;42.646;23.380;2023-12-20T09:39:57;94353.44;;;1.82;97.59
3968;BME280;9221;42.646;23.380;2023-12-20T09:43:08;94354.06;;;1.98;96.41
3968;BME280;9221;42.646;23.380;2023-12-20T09:45:35;94365.19;;;2.13;96.14
3968;BME280;9221;42.646;23.380;2023-12-20T09:48:01;94345.00;;;1.78;95.95
3968;BME280;9221;42.646;23.380;2023-12-20T09:50:30;94343.97;;;1.94;97.05
3968;BME280;9221;42.646;23.380;2023-12-20T09:52:58;94359.13;;;1.87;96.94
3968;BME280;9221;42.646;23.380;2023-12-20T09:55:25;94344.38;;;2.00;96.78
3968;BME280;9221;42.646;23.380;2023-12-20T09:57:51;94329.16;;;2.20;96.69
3968;BME280;9221;42.646;23.380;2023-12-20T10:00:17;94344.38;;;2.13;95.80
3968;BME280;9221;42.646;23.380;2023-12-20T10:02:59;94330.44;;;2.27;95.89
3968;BME280;9221;42.646;23.380;2023-12-20T10:05:34;94330.44;;;2.64;95.38
3968;BME280;9221;42.646;23.380;2023-12-20T10:08:01;94310.94;;;2.70;94.08
3968;BME280;9221;42.646;23.380;2023-12-20T10:10:27;94307.91;;;3.00;93.77
3968;BME280;9221;42.646;23.380;2023-12-20T10:13:05;94306.63;;;3.06;92.32
3968;BME280;9221;42.646;23.380;2023-12-20T10:15:36;94299.25;;;3.24;92.25
3968;BME280;9221;42.646;23.380;2023-12-20T10:18:02;94306.09;;;3.61;91.45
3968;BME280;9221;42.646;23.380;2023-12-20T10:20:28;94301.50;;;3.64;90.14
3968;BME280;9221;42.646;23.380;2023-12-20T10:22:55;94256.19;;;3.54;89.41
3968;BME280;9221;42.646;23.380;2023-12-20T10:25:21;94293.59;;;3.88;88.94
3968;BME280;9221;42.646;23.380;2023-12-20T10:27:47;94285.41;;;4.04;88.77
3968;BME280;9221;42.646;23.380;2023-12-20T10:30:13;94264.53;;;4.16;88.18
3968;BME280;9221;42.646;23.380;2023-12-20T10:32:39;94264.53;;;4.16;88.24
3968;BME280;9221;42.646;23.380;2023-12-20T10:35:06;94298.69;;;4.01;87.94
3968;BME280;9221;42.646;23.380;2023-12-20T10:37:35;94277.81;;;3.79;88.85
3968;BME280;9221;42.646;23.380;2023-12-20T10:40:03;94268.31;;;3.89;89.68
3968;BME280;9221;42.646;23.380;2023-12-20T10:42:29;94260.63;;;3.99;89.36
3968;BME280;9221;42.646;23.380;2023-12-20T10:44:56;94239.16;;;3.84;89.20
3968;BME280;9221;42.646;23.380;2023-12-20T10:47:22;94238.34;;;3.83;89.60
3968;BME280;9221;42.646;23.380;2023-12-20T10:49:48;94235.84;;;3.82;90.19
3968;BME280;9221;42.646;23.380;2023-12-20T10:52:16;94247.47;;;3.89;90.56
3968;BME280;9221;42.646;23.380;2023-12-20T10:54:42;94242.25;;;3.89;90.35
3968;BME280;9221;42.646;23.380;2023-12-20T10:57:08;94248.28;;;3.89;90.91
3968;BME280;9221;42.646;23.380;2023-12-20T10:59:35;94242.72;;;4.05;90.65
3968;BME280;9221;42.646;23.380;2023-12-20T11:02:03;94221.72;;;3.96;90.23
3968;BME280;9221;42.646;23.380;2023-12-20T11:04:47;94231.81;;;3.89;89.28
3968;BME280;9221;42.646;23.380;2023-12-20T11:09:48;94242.13;;;3.21;92.96
3968;BME280;9221;42.646;23.380;2023-12-20T11:12:21;94211.78;;;3.09;93.63
3968;BME280;9221;42.646;23.380;2023-12-20T11:14:53;94219.19;;;3.26;93.91
3968;BME280;9221;42.646;23.380;2023-12-20T11:17:22;94210.69;;;3.47;94.21
3968;BME280;9221;42.646;23.380;2023-12-20T11:22:29;94188.56;;;3.64;93.61
3968;BME280;9221;42.646;23.380;2023-12-20T11:24:58;94147.41;;;3.56;92.83
3968;BME280;9221;42.646;23.380;2023-12-20T11:27:23;94187.81;;;3.96;92.21
3968;BME280;9221;42.646;23.380;2023-12-20T11:29:53;94171.56;;;3.92;91.73
3968;BME280;9221;42.646;23.380;2023-12-20T11:37:38;94155.66;;;4.06;92.11
3968;BME280;9221;42.646;23.380;2023-12-20T11:40:11;94146.66;;;4.11;91.54
3968;BME280;9221;42.646;23.380;2023-12-20T11:42:41;94151.63;;;4.14;91.06
3968;BME280;9221;42.646;23.380;2023-12-20T11:45:10;94139.63;;;4.22;90.48
3968;BME280;9221;42.646;23.380;2023-12-20T11:47:36;94131.25;;;4.07;90.65
3968;BME280;9221;42.646;23.380;2023-12-20T11:50:02;94129.59;;;4.06;90.92
3968;BME280;9221;42.646;23.380;2023-12-20T11:52:30;94133.19;;;3.83;90.92
3968;BME280;9221;42.646;23.380;2023-12-20T11:54:57;94147.41;;;3.79;91.89
3968;BME280;9221;42.646;23.380;2023-12-20T11:57:22;94120.84;;;3.62;92.23
3968;BME280;9221;42.646;23.380;2023-12-20T11:59:48;94119.09;;;3.63;93.27
3968;BME280;9221;42.646;23.380;2023-12-20T12:02:13;94118.25;;;3.85;93.29
3968;BME280;9221;42.646;23.380;2023-12-20T12:04:41;94108.84;;;3.94;93.01
3968;BME280;9221;42.646;23.380;2023-12-20T12:07:07;94088.91;;;4.04;93.06
3968;BME280;9221;42.646;23.380;2023-12-20T12:09:32;94081.81;;;4.06;92.49
3968;BME280;9221;42.646;23.380;2023-12-20T12:11:58;94089.72;;;4.04;91.37
3968;BME280;9221;42.646;23.380;2023-12-20T12:14:24;94084.34;;;3.62;92.26
3968;BME280;9221;42.646;23.380;2023-12-20T12:16:50;94076.56;;;3.51;93.04
3968;BME280;9221;42.646;23.380;2023-12-20T12:19:26;94028.28;;;3.24;93.61
3968;BME280;9221;42.646;23.380;2023-12-20T12:24:32;94075.13;;;3.47;94.57
3968;BME280;9221;42.646;23.380;2023-12-20T12:26:58;94064.22;;;3.64;94.53
3968;BME280;9221;42.646;23.380;2023-12-20T12:29:23;94068.97;;;3.70;94.53
3968;BME280;9221;42.646;23.380;2023-12-20T12:31:50;94069.13;;;3.35;95.13
3968;BME280;9221;42.646;23.380;2023-12-20T12:34:16;94070.44;;;3.41;95.98
3968;BME280;9221;42.646;23.380;2023-12-20T12:36:43;94056.22;;;3.45;96.04
3968;BME280;9221;42.646;23.380;2023-12-20T12:39:08;94066.28;;;3.38;95.85
3968;BME280;9221;42.646;23.380;2023-12-20T12:41:35;94053.19;;;3.61;96.11
3968;BME280;9221;42.646;23.380;2023-12-20T12:44:00;94052.56;;;3.91;95.43
3968;BME280;9221;42.646;23.380;2023-12-20T12:46:26;94040.88;;;4.06;94.78
3968;BME280;9221;42.646;23.380;2023-12-20T12:48:51;94045.56;;;4.24;93.78
3968;BME280;9221;42.646;23.380;2023-12-20T12:51:17;94044.69;;;4.35;92.85
3968;BME280;9221;42.646;23.380;2023-12-20T12:53:42;94042.59;;;4.50;92.70
3968;BME280;9221;42.646;23.380;2023-12-20T12:56:08;94045.63;;;4.55;91.74
3968;BME280;9221;42.646;23.380;2023-12-20T12:58:34;94038.50;;;4.57;91.58
3968;BME280;9221;42.646;23.380;2023-12-20T13:00:59;94009.28;;;4.42;91.63
3968;BME280;9221;42.646;23.380;2023-12-20T13:03:25;94042.13;;;4.66;90.82
3968;BME280;9221;42.646;23.380;2023-12-20T13:05:50;94052.25;;;4.59;91.20
3968;BME280;9221;42.646;23.380;2023-12-20T13:08:16;94051.28;;;4.60;90.99
3968;BME280;9221;42.646;23.380;2023-12-20T13:10:41;94049.44;;;4.51;91.25
3968;BME280;9221;42.646;23.380;2023-12-20T13:13:07;94042.69;;;4.48;91.27
3968;BME280;9221;42.646;23.380;2023-12-20T13:15:32;94037.72;;;4.45;91.57
3968;BME280;9221;42.646;23.380;2023-12-20T13:17:58;94041.94;;;4.36;91.41
3968;BME280;9221;42.646;23.380;2023-12-20T13:20:23;94035.06;;;4.35;91.42
3968;BME280;9221;42.646;23.380;2023-12-20T13:22:49;94000.78;;;4.07;91.79
3968;BME280;9221;42.646;23.380;2023-12-20T13:25:14;94037.47;;;4.27;91.71
3968;BME280;9221;42.646;23.380;2023-12-20T13:27:41;94033.19;;;4.26;92.20